Latest Weather Observations for Hillarys Point Boat Harbour

IDW60901

Issued at 7:21 pm WST Saturday 25 February 2017 (issued every 10 minutes, with the page automatically refreshed every 10 minutes)

About weather observations | Map of Perth area stations | Latest observations for Perth area | Other Formats
Station Details ID: 009265 Name: HILLARYS BOAT HARBOUR NTC AWS Lat: -31.83 Lon: 115.74 Height: 0.0 m
Data from the previous 72 hours. | See also: Recent months for locations in Western Australia
Date/Time
WST
Temp
°C
App
Temp
°C
Dew
Point
°C
Rel
Hum
%
Delta-T
°C
Wind Press
QNH
hPa
Press
MSL
hPa
Rain since
9am
mm
Dir  Spd
km/h
Gust
km/h
Spd
kts
Gust
kts
25/07:00pm 25.0 - - - - SSW 2 9 1 5 1010.3 1010.2 -
25/06:30pm 25.3 - - - - S 4 9 2 5 1010.3 1010.2 -
25/06:00pm 25.8 - - - - S 4 7 2 4 1010.2 1010.1 -
25/05:30pm 25.9 - - - - S 6 11 3 6 1010.3 1010.2 -
25/05:00pm 26.1 - - - - SSE 6 13 3 7 1010.4 1010.3 -
25/04:30pm 26.5 - - - - SSE 7 13 4 7 1010.7 1010.6 -
25/04:00pm 26.9 - - - - S 6 11 3 6 1010.9 1010.8 -
25/03:30pm 27.0 - - - - SSE 7 13 4 7 1011.0 1010.9 -
25/03:00pm 27.9 - - - - SSE 6 13 3 7 1011.4 1011.3 -
25/02:30pm 28.3 - - - - SSE 7 15 4 8 1011.6 1011.5 -
25/02:00pm 29.6 - - - - S 4 7 2 4 1011.9 1011.8 -
25/01:30pm 32.5 - - - - SW 4 9 2 5 1012.3 1012.2 -
25/01:00pm 30.2 - - - - NW 6 13 3 7 1012.6 1012.5 -
25/12:57pm 31.2 - - - - N 6 13 3 7 1012.7 1012.6 -
25/12:30pm 36.5 - - - - NE 11 22 6 12 1012.9 1012.8 -
25/12:00pm 35.7 - - - - NNE 13 20 7 11 1013.2 1013.1 -
25/11:30am 35.0 - - - - NNE 13 22 7 12 1013.6 1013.6 -
25/11:00am 34.1 - - - - NE 13 24 7 13 1013.9 1013.9 -
25/10:30am 33.3 - - - - NE 17 30 9 16 1014.2 1014.2 -
25/10:00am 32.4 - - - - NE 13 24 7 13 1014.5 1014.5 -
25/09:30am 31.2 - - - - NE 19 32 10 17 1014.5 1014.5 -
25/09:00am 29.9 - - - - NE 19 32 10 17 1014.6 1014.6 -
25/08:30am 28.5 - - - - ENE 19 33 10 18 1014.6 1014.6 -
25/08:00am 27.2 - - - - ENE 20 32 11 17 1014.7 1014.7 -
25/07:30am 26.1 - - - - ENE 19 35 10 19 1014.7 1014.7 -
25/07:00am 25.6 - - - - ENE 19 30 10 16 1014.7 1014.7 -
25/06:30am 25.3 - - - - ENE 17 26 9 14 1014.5 1014.5 -
25/06:00am 25.1 - - - - ENE 17 26 9 14 1014.3 1014.3 -
25/05:30am 25.1 - - - - ENE 17 22 9 12 1014.1 1014.1 -
25/05:00am 25.3 - - - - ENE 17 26 9 14 1013.9 1013.9 -
25/04:30am 25.4 - - - - ENE 15 20 8 11 1013.9 1013.9 -
25/04:00am 25.6 - - - - ENE 15 22 8 12 1013.8 1013.8 -
25/03:30am 26.2 - - - - ENE 15 24 8 13 1014.0 1014.0 -
25/03:00am 26.8 - - - - ENE 15 22 8 12 1014.1 1014.1 -
25/02:30am 26.5 - - - - ENE 15 22 8 12 1014.4 1014.4 -
25/02:00am 27.1 - - - - ENE 15 22 8 12 1014.6 1014.6 -
25/01:30am 26.2 - - - - ENE 13 20 7 11 1014.9 1014.9 -
25/01:00am 25.5 - - - - ENE 11 17 6 9 1015.3 1015.3 -
25/12:30am 25.6 - - - - ENE 9 15 5 8 1015.6 1015.6 -
25/12:00am 25.9 - - - - ENE 7 9 4 5 1015.9 1015.9 -
 
Date/Time
WST
Temp
°C
App
Temp
°C
Dew
Point
°C
Rel
Hum
%
Delta-T
°C
Wind Press
QNH
hPa
Press
MSL
hPa
Rain since
9am
mm
Dir  Spd
km/h
Gust
km/h
Spd
kts
Gust
kts
24/11:30pm 26.4 - - - - ENE 6 9 3 5 1015.9 1015.9 -
24/11:00pm 27.3 - - - - E 4 9 2 5 1016.1 1016.1 -
24/10:30pm 27.0 - - - - SE 2 6 1 3 1016.4 1016.4 -
24/10:00pm 25.3 - - - - SSE 2 2 1 1 1016.5 1016.5 -
24/09:30pm 24.3 - - - - S 4 6 2 3 1016.6 1016.6 -
24/09:00pm 24.7 - - - - S 4 6 2 3 1016.6 1016.6 -
24/08:30pm 25.1 - - - - SSE 4 6 2 3 1016.4 1016.4 -
24/08:00pm 25.1 - - - - SSE 6 7 3 4 1016.1 1016.1 -
24/07:30pm 25.9 - - - - SSE 4 9 2 5 1015.8 1015.8 -
24/07:00pm 26.1 - - - - SE 6 11 3 6 1015.7 1015.7 -
24/06:30pm 26.7 - - - - ESE 4 11 2 6 1015.5 1015.5 -
24/06:00pm 26.7 - - - - SSE 6 15 3 8 1015.4 1015.4 -
24/05:30pm 26.2 - - - - SSE 6 13 3 7 1015.4 1015.4 -
24/05:00pm 27.4 - - - - S 7 19 4 10 1015.6 1015.6 -
24/04:30pm 27.8 - - - - SW 7 20 4 11 1015.5 1015.5 -
24/04:21pm 29.9 - - - - SE 6 13 3 7 1015.5 1015.5 -
24/04:00pm 35.7 - - - - ESE 4 13 2 7 1015.6 1015.6 -
24/03:30pm 35.7 - - - - NNE 6 13 3 7 1015.9 1015.9 -
24/03:00pm 35.3 - - - - E 6 13 3 7 1016.2 1016.2 -
24/02:30pm 34.5 - - - - NE 9 17 5 9 1016.6 1016.6 -
24/02:00pm 35.1 - - - - NE 9 20 5 11 1017.1 1017.1 -
24/01:30pm 34.0 - - - - ENE 13 26 7 14 1017.5 1017.5 -
24/01:00pm 33.2 - - - - NE 11 20 6 11 1017.9 1017.9 -
24/12:30pm 33.1 - - - - ENE 17 28 9 15 1018.1 1018.1 -
24/12:00pm 32.1 - - - - ENE 19 32 10 17 1018.3 1018.3 -
24/11:30am 31.3 - - - - ENE 19 32 10 17 1018.6 1018.6 -
24/11:00am 30.4 - - - - ENE 20 37 11 20 1019.0 1019.0 -
24/10:30am 29.2 - - - - ENE 24 39 13 21 1019.2 1019.2 -
24/10:00am 28.6 - - - - ENE 22 33 12 18 1019.5 1019.5 -
24/09:40am 28.1 - - - - ENE 28 46 15 25 1019.4 1019.4 -
24/09:30am 27.8 - - - - ENE 26 37 14 20 1019.5 1019.5 -
24/09:00am 26.1 - - - - ENE 22 39 12 21 1019.5 1019.5 -
24/08:30am 24.9 - - - - ENE 24 41 13 22 1019.6 1019.6 -
24/08:19am 24.7 - - - - ENE 28 48 15 26 1019.5 1019.5 -
24/08:00am 24.1 - - - - ENE 20 32 11 17 1019.6 1019.6 -
24/07:30am 23.0 - - - - ENE 19 32 10 17 1019.6 1019.6 -
24/07:00am 22.4 - - - - ENE 17 30 9 16 1019.5 1019.5 -
24/06:30am 21.9 - - - - ENE 15 24 8 13 1019.2 1019.2 -
24/06:00am 22.1 - - - - ENE 17 28 9 15 1019.1 1019.1 -
24/05:30am 22.4 - - - - E 15 26 8 14 1018.9 1018.9 -
24/05:00am 22.3 - - - - ENE 11 17 6 9 1018.7 1018.7 -
24/04:30am 22.1 - - - - E 9 17 5 9 1018.5 1018.5 -
24/04:00am 22.3 - - - - E 7 13 4 7 1018.5 1018.5 -
24/03:30am 22.2 - - - - E 6 13 3 7 1018.6 1018.6 -
24/03:00am 22.8 - - - - E 7 15 4 8 1018.7 1018.7 -
24/02:30am 22.6 - - - - E 9 15 5 8 1018.8 1018.8 -
24/02:00am 21.5 - - - - E 4 9 2 5 1019.0 1019.0 -
24/01:30am 20.4 - - - - E 2 6 1 3 1019.3 1019.3 -
24/01:00am 19.9 - - - - SE 2 7 1 4 1019.4 1019.4 -
24/12:30am 20.3 - - - - SE 4 7 2 4 1019.6 1019.6 -
24/12:00am 20.8 - - - - SSE 6 11 3 6 1019.7 1019.7 -
 
Date/Time
WST
Temp
°C
App
Temp
°C
Dew
Point
°C
Rel
Hum
%
Delta-T
°C
Wind Press
QNH
hPa
Press
MSL
hPa
Rain since
9am
mm
Dir  Spd
km/h
Gust
km/h
Spd
kts
Gust
kts
23/11:30pm 21.0 - - - - SSE 4 11 2 6 1019.8 1019.8 -
23/11:00pm 21.2 - - - - SSE 6 13 3 7 1019.9 1019.9 -
23/10:30pm 21.6 - - - - SSE 7 17 4 9 1020.1 1020.1 -
23/10:00pm 21.6 - - - - S 6 13 3 7 1020.3 1020.3 -
23/09:30pm 21.6 - - - - S 6 17 3 9 1020.4 1020.4 -
23/09:00pm 21.7 - - - - S 9 26 5 14 1020.2 1020.2 -
23/08:30pm 21.8 - - - - S 7 20 4 11 1020.0 1020.0 -
23/08:00pm 22.1 - - - - S 7 20 4 11 1019.8 1019.8 -
23/07:30pm 22.0 - - - - S 7 22 4 12 1019.5 1019.5 -
23/07:00pm 22.0 - - - - SSW 6 15 3 8 1019.3 1019.3 -
23/06:30pm 22.5 - - - - S 7 19 4 10 1018.9 1018.9 -
23/06:00pm 22.8 - - - - SSW 6 17 3 9 1018.6 1018.6 -
23/05:30pm 23.1 - - - - SSW 7 17 4 9 1018.4 1018.4 -
23/05:00pm 22.9 - - - - SSW 9 20 5 11 1018.4 1018.4 -
23/04:30pm 23.0 - - - - SSW 6 17 3 9 1018.4 1018.4 -
23/04:00pm 22.9 - - - - SSW 7 17 4 9 1018.5 1018.5 -
23/03:30pm 22.9 - - - - SSW 9 22 5 12 1018.5 1018.5 -
23/03:00pm 23.0 - - - - SSW 9 24 5 13 1018.7 1018.7 -
23/02:30pm 23.0 - - - - SSW 11 22 6 12 1018.9 1018.9 -
23/02:00pm 22.9 - - - - SSW 7 19 4 10 1019.3 1019.3 -
23/01:30pm 22.7 - - - - SSW 7 19 4 10 1019.6 1019.6 -
23/01:00pm 22.7 - - - - SSW 15 24 8 13 1019.8 1019.8 -
23/12:30pm 23.1 - - - - SW 15 24 8 13 1019.8 1019.8 -
23/12:00pm 23.6 - - - - SW 15 22 8 12 1020.0 1020.0 -
23/11:30am 27.0 - - - - ESE 6 15 3 8 1020.4 1020.4 -
23/11:00am 26.4 - - - - E 7 17 4 9 1020.7 1020.7 -
23/10:30am 25.2 - - - - ENE 9 17 5 9 1020.9 1020.9 -
23/10:00am 24.1 - - - - ENE 11 19 6 10 1021.0 1021.0 -
23/09:30am 23.2 - - - - ENE 13 20 7 11 1021.2 1021.2 -
23/09:00am 21.4 - - - - ENE 11 24 6 13 1021.3 1021.3 -
23/08:30am 20.2 - - - - E 7 19 4 10 1021.3 1021.3 -
23/08:00am 18.9 - - - - ESE 6 11 3 6 1021.4 1021.4 -
23/07:30am 17.7 - - - - ESE 4 7 2 4 1021.5 1021.5 -
23/07:00am 16.8 - - - - SE 2 6 1 3 1020.9 1020.9 -
23/06:30am 15.6 - - - - SE 2 4 1 2 1020.6 1020.6 -
23/06:00am 15.8 - - - - SE 4 9 2 5 1020.4 1020.4 -
23/05:30am 16.1 - - - - SSE 2 6 1 3 1020.2 1020.2 -
23/05:00am 16.1 - - - - ESE 2 6 1 3 1020.1 1020.1 -
23/04:30am 16.5 - - - - SE 2 6 1 3 1020.1 1020.1 -
23/04:00am 16.6 - - - - E 2 6 1 3 1020.2 1020.2 -
23/03:30am 17.3 - - - - SE 4 11 2 6 1020.0 1020.0 -
23/03:00am 17.2 - - - - ESE 2 9 1 5 1019.9 1019.9 -
23/02:30am 17.5 - - - - SE 4 11 2 6 1019.9 1019.9 -
23/02:00am 17.6 - - - - SE 6 11 3 6 1019.9 1019.9 -
23/01:30am 17.7 - - - - SSE 6 13 3 7 1020.0 1020.0 -
23/01:00am 17.8 - - - - SSE 6 11 3 6 1020.1 1020.1 -
23/12:30am 18.0 - - - - SSE 7 13 4 7 1020.1 1020.1 -
23/12:00am 18.2 - - - - SSE 9 19 5 10 1020.4 1020.4 -
 
Date/Time
WST
Temp
°C
App
Temp
°C
Dew
Point
°C
Rel
Hum
%
Delta-T
°C
Wind Press
QNH
hPa
Press
MSL
hPa
Rain since
9am
mm
Dir  Spd
km/h
Gust
km/h
Spd
kts
Gust
kts
22/11:30pm 18.3 - - - - SSE 9 17 5 9 1020.4 1020.4 -
22/11:00pm 18.6 - - - - SSE 9 17 5 9 1020.5 1020.5 -
22/10:30pm 18.8 - - - - SSE 11 19 6 10 1020.6 1020.6 -
22/10:00pm 19.3 - - - - SSE 11 22 6 12 1020.9 1020.9 -
22/09:30pm 19.6 - - - - S 7 17 4 9 1020.9 1020.9 -
22/09:00pm 19.6 - - - - S 7 22 4 12 1020.9 1020.9 -
22/08:30pm 19.6 - - - - SSW 9 22 5 12 1020.7 1020.7 -
22/08:00pm 19.8 - - - - SSW 9 20 5 11 1020.4 1020.4 -
22/07:30pm 19.8 - - - - SSW 11 20 6 11 1020.1 1020.1 -

Latest Capital City Observations: Canberra | Sydney | Melbourne | Brisbane | Adelaide | Perth | Hobart | Darwin

Other Formats:

Comma delimited format used in spreadsheet applications
http://www.bom.gov.au/fwo/IDW60901/IDW60901.95605.axf

JavaScript Object Notation format (JSON) in row-major order
http://www.bom.gov.au/fwo/IDW60901/IDW60901.95605.json